createdAt,value
2023-04-18T00:01:28.946Z,101032.05
2023-04-18T00:03:22.063Z,101034.92
2023-04-18T00:05:13.825Z,101033.39
2023-04-18T00:07:06.698Z,101038.27
2023-04-18T00:08:58.444Z,101038.10
2023-04-18T00:10:49.877Z,101040.35
2023-04-18T00:12:41.292Z,101038.23
2023-04-18T00:14:34.723Z,101037.75
2023-04-18T00:16:28.387Z,101036.37
2023-04-18T00:18:20.082Z,101039.00
2023-04-18T00:20:13.138Z,101039.23
2023-04-18T00:22:04.800Z,101035.56
2023-04-18T00:23:56.336Z,101037.29
2023-04-18T00:25:50.721Z,101040.88
2023-04-18T00:27:42.278Z,101039.66
2023-04-18T00:29:34.104Z,101036.90
2023-04-18T00:31:26.176Z,101040.15
2023-04-18T00:33:17.900Z,101040.42
2023-04-18T00:35:09.703Z,101038.75
2023-04-18T00:37:01.758Z,101038.74
2023-04-18T00:38:53.150Z,101040.32
2023-04-18T00:40:44.775Z,101041.50
2023-04-18T00:42:36.672Z,101036.39
2023-04-18T00:44:28.429Z,101035.66
2023-04-18T00:46:20.248Z,101036.35
2023-04-18T00:48:12.112Z,101036.45
2023-04-18T00:50:04.392Z,101033.56
2023-04-18T00:51:56.185Z,101032.34
2023-04-18T00:53:48.010Z,101031.51
2023-04-18T00:55:40.738Z,101030.29
2023-04-18T00:57:32.599Z,101026.01
2023-04-18T00:59:24.398Z,101028.66
2023-04-18T01:01:16.250Z,101028.10
2023-04-18T01:03:08.688Z,101025.67
2023-04-18T01:05:00.517Z,101027.07
2023-04-18T01:06:52.323Z,101027.85
2023-04-18T01:08:45.085Z,101029.09
2023-04-18T01:10:37.472Z,101028.96
2023-04-18T01:12:29.074Z,101027.98
2023-04-18T01:14:21.041Z,101028.55
2023-04-18T01:16:12.356Z,101032.02
2023-04-18T01:18:04.081Z,101032.21
2023-04-18T01:19:56.805Z,101033.65
2023-04-18T01:21:48.593Z,101032.39
2023-04-18T01:23:40.450Z,101031.46
2023-04-18T01:25:33.358Z,101025.58
2023-04-18T01:27:25.396Z,101028.32
2023-04-18T01:29:17.319Z,101030.48
2023-04-18T01:31:08.926Z,101029.70
2023-04-18T01:33:02.367Z,101028.55
2023-04-18T01:34:53.957Z,101030.14
2023-04-18T01:36:46.425Z,101029.66
2023-04-18T01:38:37.971Z,101028.55
2023-04-18T01:40:30.332Z,101029.23
2023-04-18T01:42:22.221Z,101031.10
2023-04-18T01:44:13.897Z,101029.30
2023-04-18T01:46:05.913Z,101027.85
2023-04-18T01:47:57.733Z,101033.40
2023-04-18T01:49:49.688Z,101034.27
2023-04-18T01:51:43.188Z,101032.83
2023-04-18T01:53:34.821Z,101032.69
2023-04-18T01:55:26.661Z,101031.77
2023-04-18T01:57:18.398Z,101034.08
2023-04-18T01:59:09.654Z,101026.35
2023-04-18T02:01:01.605Z,101035.89
2023-04-18T02:02:53.700Z,101035.45
2023-04-18T02:04:45.481Z,101035.83
2023-04-18T02:06:37.419Z,101034.33
2023-04-18T02:08:30.926Z,101029.17
2023-04-18T02:10:22.816Z,101034.13
2023-04-18T02:12:14.605Z,101033.15
2023-04-18T02:14:06.796Z,101031.45
2023-04-18T02:15:58.468Z,101035.61
2023-04-18T02:17:50.684Z,101032.96
2023-04-18T02:19:42.982Z,101030.83
2023-04-18T02:21:34.825Z,101030.86
2023-04-18T02:23:26.126Z,101029.76
2023-04-18T02:25:18.736Z,101029.83
2023-04-18T02:27:11.203Z,101033.39
2023-04-18T02:29:03.124Z,101033.92
2023-04-18T02:30:54.844Z,101034.38
2023-04-18T02:32:47.166Z,101032.56
2023-04-18T02:34:39.568Z,101029.41
2023-04-18T02:36:31.081Z,101033.60
2023-04-18T02:38:22.892Z,101033.42
2023-04-18T02:40:14.892Z,101034.73
2023-04-18T02:42:06.580Z,101031.99
2023-04-18T02:43:59.164Z,101029.98
2023-04-18T02:45:50.949Z,101035.85
2023-04-18T02:47:51.728Z,101031.09
2023-04-18T02:49:46.785Z,101029.59
2023-04-18T02:51:38.665Z,101034.45
2023-04-18T02:53:30.663Z,101031.00
2023-04-18T02:55:22.684Z,101026.34
2023-04-18T02:57:14.740Z,101029.92
2023-04-18T02:59:07.248Z,101027.11
2023-04-18T03:00:59.103Z,101027.70
2023-04-18T03:02:50.941Z,101028.64
2023-04-18T03:04:42.790Z,101032.86
2023-04-18T03:06:34.574Z,101032.37
2023-04-18T03:08:26.441Z,101033.39
2023-04-18T03:10:18.355Z,101034.44
2023-04-18T03:12:09.799Z,101032.75
2023-04-18T03:14:01.442Z,101034.52
2023-04-18T03:15:53.105Z,101037.38
2023-04-18T03:17:44.584Z,101036.52
2023-04-18T03:19:36.446Z,101034.89
2023-04-18T03:21:28.125Z,101033.08
2023-04-18T03:23:19.565Z,101035.79
2023-04-18T03:25:11.446Z,101029.42
2023-04-18T03:27:03.164Z,101030.82
2023-04-18T03:28:54.879Z,101031.90
2023-04-18T03:30:46.700Z,101033.77
2023-04-18T03:32:38.697Z,101034.14
2023-04-18T03:34:30.588Z,101031.84
2023-04-18T03:36:25.449Z,101028.80
2023-04-18T03:38:17.121Z,101029.56
2023-04-18T03:40:09.296Z,101031.19
2023-04-18T03:42:02.146Z,101024.60
2023-04-18T03:43:53.713Z,101029.09
2023-04-18T03:45:47.443Z,101024.60
2023-04-18T03:47:39.272Z,101025.34
2023-04-18T03:49:31.054Z,101024.48
2023-04-18T03:51:22.941Z,101029.36
2023-04-18T03:53:15.040Z,101028.33
2023-04-18T03:55:07.084Z,101027.83
2023-04-18T03:56:59.729Z,101031.63
2023-04-18T03:58:51.650Z,101032.54
2023-04-18T04:00:43.271Z,101033.55
2023-04-18T04:02:34.724Z,101034.91
2023-04-18T04:04:26.613Z,101037.98
2023-04-18T04:06:18.732Z,101036.16
2023-04-18T04:08:10.240Z,101036.07
2023-04-18T04:10:01.683Z,101036.14
2023-04-18T04:11:53.497Z,101037.17
2023-04-18T04:13:44.902Z,101036.94
2023-04-18T04:15:38.514Z,101044.06
2023-04-18T04:17:30.160Z,101042.88
2023-04-18T04:19:22.061Z,101043.69
2023-04-18T04:21:13.371Z,101049.27
2023-04-18T04:23:06.294Z,101044.33
2023-04-18T04:24:57.874Z,101048.23
2023-04-18T04:26:53.125Z,101051.73
2023-04-18T04:28:46.743Z,101055.02
2023-04-18T04:30:41.731Z,101050.55
2023-04-18T04:32:33.320Z,101051.94
2023-04-18T04:34:24.751Z,101050.63
2023-04-18T04:36:18.835Z,101048.89
2023-04-18T04:38:12.781Z,101052.71
2023-04-18T04:40:06.233Z,101053.77
2023-04-18T04:41:58.024Z,101058.23
2023-04-18T04:43:51.315Z,101061.77
2023-04-18T04:45:43.719Z,101062.49
2023-04-18T04:47:36.565Z,101070.45
2023-04-18T04:49:28.495Z,101067.45
2023-04-18T04:51:20.926Z,101067.55
2023-04-18T04:53:12.652Z,101069.58
2023-04-18T04:57:12.948Z,101070.61
2023-04-18T04:59:04.249Z,101068.04
2023-04-18T05:00:55.729Z,101072.01
2023-04-18T05:02:53.522Z,101072.95
2023-04-18T05:04:45.069Z,101072.80
2023-04-18T05:06:37.924Z,101074.55
2023-04-18T05:08:31.063Z,101076.73
2023-04-18T05:10:23.313Z,101075.89
2023-04-18T05:12:14.791Z,101082.80
2023-04-18T05:14:06.133Z,101077.65
2023-04-18T05:15:59.548Z,101077.11
2023-04-18T05:17:51.026Z,101079.73
2023-04-18T05:19:48.423Z,101080.10
2023-04-18T05:21:39.963Z,101076.84
2023-04-18T05:23:33.082Z,101077.59
2023-04-18T05:25:24.560Z,101077.18
2023-04-18T05:27:17.998Z,101076.27
2023-04-18T05:29:10.025Z,101077.88
2023-04-18T05:31:04.008Z,101078.09
2023-04-18T05:32:55.627Z,101081.91
2023-04-18T05:34:48.450Z,101084.08
2023-04-18T05:36:40.568Z,101082.23
2023-04-18T05:38:32.030Z,101083.96
2023-04-18T05:40:23.432Z,101084.96
2023-04-18T05:42:14.746Z,101088.48
2023-04-18T05:44:06.583Z,101089.27
2023-04-18T05:45:58.190Z,101089.94
2023-04-18T05:47:49.724Z,101087.45
2023-04-18T05:49:41.201Z,101086.42
2023-04-18T05:51:32.793Z,101087.62
2023-04-18T05:53:23.981Z,101086.89
2023-04-18T05:55:15.706Z,101089.00
2023-04-18T05:57:07.135Z,101091.51
2023-04-18T05:58:58.786Z,101089.24
2023-04-18T06:00:50.164Z,101091.73
2023-04-18T06:02:42.061Z,101091.23
2023-04-18T06:04:34.258Z,101094.67
2023-04-18T06:06:26.198Z,101094.02
2023-04-18T06:08:17.860Z,101092.15
2023-04-18T06:10:13.451Z,101097.77
2023-04-18T06:12:05.636Z,101098.52
2023-04-18T06:13:57.498Z,101099.54
2023-04-18T06:15:49.416Z,101098.39
2023-04-18T06:17:41.329Z,101099.83
2023-04-18T06:19:33.294Z,101098.23
2023-04-18T06:21:25.940Z,101099.39
2023-04-18T06:23:17.315Z,101101.56
2023-04-18T06:25:10.063Z,101106.59
2023-04-18T06:27:02.018Z,101110.50
2023-04-18T06:28:53.843Z,101111.98
2023-04-18T06:30:45.261Z,101110.04
2023-04-18T06:32:37.075Z,101110.17
2023-04-18T06:34:28.873Z,101113.05
2023-04-18T06:36:21.349Z,101111.73
2023-04-18T06:38:13.213Z,101116.30
2023-04-18T06:40:05.818Z,101115.45
2023-04-18T06:41:58.046Z,101116.20
2023-04-18T06:44:02.728Z,101120.27
2023-04-18T06:45:56.805Z,101120.70
2023-04-18T06:47:48.960Z,101122.95
2023-04-18T06:49:41.499Z,101122.77
2023-04-18T06:51:34.248Z,101122.52
2023-04-18T06:53:26.051Z,101122.83
2023-04-18T06:55:17.833Z,101125.98
2023-04-18T06:57:09.388Z,101118.53
2023-04-18T06:59:00.758Z,101124.16
2023-04-18T07:00:53.100Z,101126.86
2023-04-18T07:02:45.031Z,101126.45
2023-04-18T07:04:36.641Z,101126.48
2023-04-18T07:06:28.181Z,101130.38
2023-04-18T07:08:20.070Z,101133.05
2023-04-18T07:10:12.057Z,101131.55
2023-04-18T07:12:03.493Z,101135.75
2023-04-18T07:13:55.280Z,101137.55
2023-04-18T07:15:46.555Z,101136.92
2023-04-18T07:17:38.468Z,101133.89
2023-04-18T07:19:30.115Z,101133.63
2023-04-18T07:21:21.633Z,101134.80
2023-04-18T07:23:13.383Z,101139.45
2023-04-18T07:25:05.215Z,101137.68
2023-04-18T07:26:56.826Z,101137.41
2023-04-18T07:28:49.310Z,101137.94
2023-04-18T07:30:41.283Z,101140.23
2023-04-18T07:32:33.247Z,101143.13
2023-04-18T07:34:27.190Z,101143.59
2023-04-18T07:36:18.654Z,101146.31
2023-04-18T07:38:11.790Z,101148.70
2023-04-18T07:40:04.495Z,101149.81
2023-04-18T07:41:56.217Z,101148.08
2023-04-18T07:43:47.736Z,101145.62
2023-04-18T07:45:39.209Z,101152.20
2023-04-18T07:47:32.254Z,101149.45
2023-04-18T07:49:24.603Z,101152.39
2023-04-18T07:51:16.003Z,101148.98
2023-04-18T07:53:08.492Z,101150.64
2023-04-18T07:55:00.136Z,101154.09
2023-04-18T07:56:51.840Z,101155.27
2023-04-18T07:58:43.166Z,101156.81
2023-04-18T08:00:37.177Z,101160.05
2023-04-18T08:02:29.287Z,101162.85
2023-04-18T08:04:21.092Z,101162.73
2023-04-18T08:06:12.710Z,101168.42
2023-04-18T08:08:07.284Z,101168.32
2023-04-18T08:09:58.899Z,101173.23
2023-04-18T08:11:50.733Z,101172.13
2023-04-18T08:13:42.699Z,101171.36
2023-04-18T08:15:34.281Z,101173.75
2023-04-18T08:17:26.092Z,101174.66
2023-04-18T08:19:17.487Z,101174.69
2023-04-18T08:21:08.867Z,101173.59
2023-04-18T08:25:04.166Z,101171.76
2023-04-18T08:26:57.630Z,101174.94
2023-04-18T08:28:49.243Z,101178.84
2023-04-18T08:30:42.402Z,101178.89
2023-04-18T08:32:36.208Z,101180.16
2023-04-18T08:34:29.304Z,101178.25
2023-04-18T08:36:21.525Z,101181.59
2023-04-18T08:38:13.603Z,101178.48
2023-04-18T08:40:07.379Z,101181.77
2023-04-18T08:42:00.124Z,101185.77
2023-04-18T08:43:51.694Z,101184.54
2023-04-18T08:45:43.743Z,101183.98
2023-04-18T08:47:35.651Z,101186.15
2023-04-18T08:49:28.457Z,101185.39
2023-04-18T08:51:19.960Z,101188.98
2023-04-18T08:53:11.835Z,101194.77
2023-04-18T08:55:03.913Z,101194.41
2023-04-18T08:57:08.764Z,101197.31
2023-04-18T08:59:00.241Z,101196.81
2023-04-18T09:00:55.144Z,101200.16
2023-04-18T09:02:47.235Z,101203.46
2023-04-18T09:04:39.977Z,101202.41
2023-04-18T09:06:33.531Z,101201.23
2023-04-18T09:08:24.788Z,101206.06
2023-04-18T09:10:36.622Z,101203.02
2023-04-18T09:12:29.514Z,101202.81
2023-04-18T09:14:25.962Z,101204.06
2023-04-18T09:16:20.734Z,101203.64
2023-04-18T09:18:12.367Z,101200.63
2023-04-18T09:20:08.758Z,101202.95
2023-04-18T09:22:02.360Z,101195.16
2023-04-18T09:24:18.303Z,101196.21
2023-04-18T09:26:10.421Z,101196.19
2023-04-18T09:28:03.069Z,101197.13
2023-04-18T09:29:56.515Z,101193.67
2023-04-18T09:32:01.229Z,101191.95
2023-04-18T09:33:54.617Z,101196.98
2023-04-18T09:35:47.325Z,101196.27
2023-04-18T09:37:39.099Z,101197.66
2023-04-18T09:39:30.712Z,101195.73
2023-04-18T09:41:23.426Z,101197.84
2023-04-18T09:43:20.165Z,101200.23
2023-04-18T09:45:13.181Z,101198.27
2023-04-18T09:47:08.283Z,101197.54
2023-04-18T09:49:00.058Z,101196.70
2023-04-18T09:50:52.568Z,101197.82
2023-04-18T09:52:45.798Z,101197.36
2023-04-18T09:54:41.201Z,101193.66
2023-04-18T09:56:35.324Z,101195.95
2023-04-18T09:58:30.953Z,101197.38
2023-04-18T10:00:24.893Z,101198.44
2023-04-18T10:02:21.143Z,101196.77
2023-04-18T10:04:14.666Z,101203.11
2023-04-18T10:06:50.298Z,101199.00
2023-04-18T10:08:43.437Z,101203.24
2023-04-18T10:10:34.794Z,101202.11
2023-04-18T10:12:26.581Z,101197.86
2023-04-18T10:14:18.174Z,101191.71
2023-04-18T10:16:11.204Z,101192.17
2023-04-18T10:18:08.523Z,101192.02
2023-04-18T10:20:16.816Z,101192.23
2023-04-18T10:22:08.708Z,101187.91
2023-04-18T10:24:00.402Z,101190.73
2023-04-18T10:25:51.884Z,101189.66
2023-04-18T10:27:49.563Z,101188.40
2023-04-18T10:29:51.824Z,101188.90
2023-04-18T10:31:48.024Z,101192.30
2023-04-18T10:33:42.772Z,101190.45
2023-04-18T10:35:36.071Z,101184.52
2023-04-18T10:37:28.498Z,101186.13
2023-04-18T10:39:25.195Z,101189.70
2023-04-18T10:41:26.033Z,101185.17
2023-04-18T10:43:17.587Z,101189.09
2023-04-18T10:45:19.623Z,101186.33
2023-04-18T10:47:16.984Z,101189.15
2023-04-18T10:49:31.166Z,101186.97
2023-04-18T11:00:38.930Z,101185.17
2023-04-18T11:02:32.449Z,101185.88
2023-04-18T11:04:25.671Z,101181.80
2023-04-18T11:06:18.236Z,101182.68
2023-04-18T11:08:30.759Z,101180.14
2023-04-18T11:10:24.657Z,101178.41
2023-04-18T11:12:16.336Z,101180.17
2023-04-18T11:14:08.122Z,101172.77
2023-04-18T11:16:00.004Z,101175.11
2023-04-18T11:18:17.725Z,101177.13
2023-04-18T11:20:14.765Z,101173.31
2023-04-18T11:22:06.755Z,101166.23
2023-04-18T11:24:05.929Z,101168.01
2023-04-18T11:26:03.956Z,101169.91
2023-04-18T11:28:01.724Z,101167.94
2023-04-18T11:29:55.153Z,101167.70
2023-04-18T11:31:54.584Z,101169.70
2023-04-18T11:33:49.142Z,101171.52
2023-04-18T11:35:42.704Z,101174.46
2023-04-18T11:37:37.820Z,101173.74
2023-04-18T11:39:29.886Z,101171.30
2023-04-18T11:41:22.404Z,101171.33
2023-04-18T11:43:19.337Z,101172.38
2023-04-18T11:45:12.862Z,101169.66
2023-04-18T11:47:04.614Z,101168.02
2023-04-18T11:48:56.535Z,101161.50
2023-04-18T11:50:48.477Z,101161.02
2023-04-18T11:52:41.439Z,101168.11
2023-04-18T11:54:38.877Z,101174.07
2023-04-18T11:56:32.249Z,101171.20
2023-04-18T11:58:32.066Z,101172.23
2023-04-18T12:00:38.768Z,101169.70
2023-04-18T12:02:48.824Z,101171.00
2023-04-18T12:04:57.798Z,101169.52
2023-04-18T12:06:52.157Z,101166.77
2023-04-18T12:08:44.837Z,101168.91
2023-04-18T12:10:38.393Z,101166.81
2023-04-18T12:12:31.095Z,101170.77
2023-04-18T12:14:35.807Z,101174.16
2023-04-18T12:16:30.919Z,101172.66
2023-04-18T12:18:24.811Z,101172.29
2023-04-18T12:20:16.597Z,101172.26
2023-04-18T12:22:09.835Z,101174.70
2023-04-18T12:24:16.274Z,101178.11
2023-04-18T12:26:14.435Z,101178.51
2023-04-18T12:28:15.875Z,101179.18
2023-04-18T12:30:10.062Z,101178.91
2023-04-18T12:32:02.635Z,101176.85
2023-04-18T12:33:55.428Z,101175.64
2023-04-18T12:35:49.557Z,101175.94
2023-04-18T12:37:42.088Z,101172.25
2023-04-18T12:39:34.381Z,101171.21
2023-04-18T12:41:26.285Z,101176.09
2023-04-18T12:43:19.062Z,101175.03
2023-04-18T12:45:12.554Z,101177.46
2023-04-18T12:47:04.885Z,101178.47
2023-04-18T12:48:57.317Z,101174.80
2023-04-18T12:50:49.069Z,101177.13
2023-04-18T12:52:40.872Z,101177.17
2023-04-18T12:54:32.405Z,101178.66
2023-04-18T12:56:23.951Z,101173.60
2023-04-18T12:58:19.495Z,101175.79
2023-04-18T13:00:14.963Z,101167.55
2023-04-18T13:02:07.027Z,101166.17
2023-04-18T13:04:10.933Z,101165.59
2023-04-18T13:06:06.353Z,101159.57
2023-04-18T13:08:15.082Z,101156.84
2023-04-18T13:10:09.061Z,101157.18
2023-04-18T13:12:02.287Z,101155.23
2023-04-18T13:13:56.860Z,101153.12
2023-04-18T13:15:48.580Z,101148.18
2023-04-18T13:17:40.707Z,101148.90
2023-04-18T13:19:32.655Z,101147.22
2023-04-18T13:21:26.208Z,101145.88
2023-04-18T13:23:17.829Z,101146.23
2023-04-18T13:25:13.465Z,101145.83
2023-04-18T13:27:10.697Z,101148.26
2023-04-18T13:29:02.705Z,101148.56
2023-04-18T13:30:54.361Z,101150.11
2023-04-18T13:32:46.303Z,101150.45
2023-04-18T13:34:41.844Z,101149.59
2023-04-18T13:36:35.281Z,101151.77
2023-04-18T13:38:28.192Z,101141.20
2023-04-18T13:40:19.889Z,101145.71
2023-04-18T13:42:13.533Z,101148.05
2023-04-18T13:44:08.552Z,101148.39
2023-04-18T13:46:00.543Z,101153.47
2023-04-18T13:47:53.208Z,101152.14
2023-04-18T13:49:45.255Z,101157.11
2023-04-18T13:51:37.382Z,101157.20
2023-04-18T13:53:31.093Z,101151.99
2023-04-18T13:55:23.118Z,101152.45
2023-04-18T13:57:15.176Z,101155.27
2023-04-18T13:59:07.559Z,101153.13
2023-04-18T14:00:59.366Z,101155.36
2023-04-18T14:02:51.321Z,101151.02
2023-04-18T14:04:43.304Z,101148.89
2023-04-18T14:06:35.219Z,101143.86
2023-04-18T14:08:27.033Z,101146.86
2023-04-18T14:10:19.066Z,101150.11
2023-04-18T14:12:11.081Z,101151.09
2023-04-18T14:14:02.587Z,101145.88
2023-04-18T14:15:54.506Z,101146.91
2023-04-18T14:17:48.522Z,101145.52
2023-04-18T14:19:39.985Z,101144.81
2023-04-18T14:21:32.156Z,101146.20
2023-04-18T14:23:23.709Z,101143.49
2023-04-18T14:25:17.159Z,101142.60
2023-04-18T14:27:09.018Z,101146.44
2023-04-18T14:29:01.406Z,101147.54
2023-04-18T14:30:55.551Z,101148.95
2023-04-18T14:32:47.435Z,101144.03
2023-04-18T14:34:39.448Z,101143.56
2023-04-18T14:36:32.761Z,101144.03
2023-04-18T14:38:24.668Z,101148.34
2023-04-18T14:40:17.023Z,101141.88
2023-04-18T14:42:08.547Z,101139.39
2023-04-18T14:44:00.485Z,101142.27
2023-04-18T14:45:52.261Z,101141.47
2023-04-18T14:47:44.338Z,101135.58
2023-04-18T14:49:35.837Z,101137.89
2023-04-18T14:51:27.811Z,101135.16
2023-04-18T14:53:19.527Z,101134.17
2023-04-18T14:55:10.922Z,101134.69
2023-04-18T14:57:02.601Z,101134.16
2023-04-18T14:58:53.798Z,101134.09
2023-04-18T15:00:45.486Z,101129.50
2023-04-18T15:02:37.179Z,101126.63
2023-04-18T15:04:28.983Z,101129.70
2023-04-18T15:06:20.674Z,101131.73
2023-04-18T15:08:26.326Z,101130.56
2023-04-18T15:10:22.578Z,101124.96
2023-04-18T15:12:16.008Z,101125.31
2023-04-18T15:14:08.944Z,101121.80
2023-04-18T15:16:01.591Z,101124.56
2023-04-18T15:17:53.581Z,101125.11
2023-04-18T15:19:45.453Z,101127.50
2023-04-18T15:21:36.913Z,101127.67
2023-04-18T15:23:28.922Z,101126.94
2023-04-18T15:25:20.890Z,101131.09
2023-04-18T15:27:12.385Z,101128.81
2023-04-18T15:29:04.038Z,101127.89
2023-04-18T15:30:55.799Z,101123.77
2023-04-18T15:32:49.135Z,101129.52
2023-04-18T15:34:41.252Z,101127.55
2023-04-18T15:36:33.386Z,101128.27
2023-04-18T15:38:25.444Z,101129.48
2023-04-18T15:40:18.821Z,101129.89
2023-04-18T15:42:10.680Z,101132.77
2023-04-18T15:44:03.009Z,101133.23
2023-04-18T15:45:54.620Z,101130.30
2023-04-18T15:47:46.266Z,101131.23
2023-04-18T15:49:37.991Z,101128.88
2023-04-18T15:51:30.497Z,101128.55
2023-04-18T15:53:22.223Z,101130.60
2023-04-18T15:55:14.199Z,101128.56
2023-04-18T15:57:05.810Z,101129.39
2023-04-18T15:58:59.242Z,101125.49
2023-04-18T16:00:51.486Z,101130.23
2023-04-18T16:02:46.130Z,101131.67
2023-04-18T16:04:38.203Z,101127.42
2023-04-18T16:06:31.445Z,101130.52
2023-04-18T16:08:26.272Z,101129.90
2023-04-18T16:10:18.167Z,101129.21
2023-04-18T16:12:10.030Z,101130.04
2023-04-18T16:14:01.331Z,101128.74
2023-04-18T16:15:53.145Z,101127.79
2023-04-18T16:17:45.589Z,101127.09
2023-04-18T16:19:41.071Z,101128.95
2023-04-18T16:21:32.622Z,101128.38
2023-04-18T16:23:25.656Z,101124.88
2023-04-18T16:25:17.432Z,101126.66
2023-04-18T16:27:09.145Z,101127.99
2023-04-18T16:29:01.316Z,101127.29
2023-04-18T16:30:55.370Z,101126.58
2023-04-18T16:32:47.187Z,101125.20
2023-04-18T16:34:38.852Z,101124.27
2023-04-18T16:36:34.519Z,101127.67
2023-04-18T16:38:27.333Z,101128.34
2023-04-18T16:40:19.207Z,101127.96
2023-04-18T16:42:11.658Z,101131.50
2023-04-18T16:44:04.886Z,101127.67
2023-04-18T16:45:57.648Z,101130.52
2023-04-18T16:47:49.458Z,101131.99
2023-04-18T16:49:43.560Z,101131.61
2023-04-18T16:51:37.258Z,101130.02
2023-04-18T16:53:29.020Z,101131.89
2023-04-18T16:55:20.600Z,101132.57
2023-04-18T16:57:12.671Z,101128.57
2023-04-18T16:59:04.301Z,101131.22
2023-04-18T17:00:55.919Z,101130.52
2023-04-18T17:02:48.539Z,101131.95
2023-04-18T17:04:40.225Z,101131.41
2023-04-18T17:06:32.686Z,101130.79
2023-04-18T17:08:25.941Z,101132.11
2023-04-18T17:10:20.630Z,101132.49
2023-04-18T17:12:12.182Z,101133.70
2023-04-18T17:14:04.220Z,101130.41
2023-04-18T17:15:56.464Z,101126.93
2023-04-18T17:27:15.485Z,101135.14
2023-04-18T17:29:07.116Z,101136.20
2023-04-18T17:31:01.397Z,101138.00
2023-04-18T17:32:53.511Z,101140.23
2023-04-18T17:34:45.632Z,101139.56
2023-04-18T17:36:37.126Z,101142.30
2023-04-18T17:38:28.868Z,101140.80
2023-04-18T17:40:20.484Z,101140.21
2023-04-18T17:42:12.614Z,101135.52
2023-04-18T17:44:05.437Z,101137.96
2023-04-18T17:45:59.438Z,101133.41
2023-04-18T17:47:51.409Z,101139.15
